Time;durP1;ratioP1;P1;durP2;ratioP2;P2;SDS_P1;SDS_P2;PMS_P1;PMS_P2;Temp;Humidity;BMP_temperature;BMP_pressure;BME280_temperature;BME280_humidity;BME280_pressure;Samples;Min_cycle;Max_cycle;Signal;HPM_P1;HPM_P2
2023/01/26 00:01:57;;;;;;;128.98;30.73;;;;;;;0.18;100.00;102501.31;5033194;28;20052;-39
2023/01/26 00:04:23;;;;;;;123.97;30.05;;;;;;;0.17;100.00;102505.75;5029454;28;20071;-39
2023/01/26 00:06:48;;;;;;;127.40;30.40;;;;;;;0.21;100.00;102506.44;5016448;28;20034;-39
2023/01/26 00:09:14;;;;;;;141.45;32.13;;;;;;;0.26;100.00;102495.66;5032260;28;20037;-39
2023/01/26 00:11:39;;;;;;;125.07;30.50;;;;;;;0.26;100.00;102495.66;5032332;28;20060;-40
2023/01/26 00:14:05;;;;;;;127.53;31.08;;;;;;;0.30;100.00;102499.88;5035114;28;20026;-39
2023/01/26 00:16:30;;;;;;;132.98;31.60;;;;;;;0.29;100.00;102501.66;5024096;28;20022;-42
2023/01/26 00:18:55;;;;;;;138.20;31.75;;;;;;;0.25;100.00;102483.34;5023265;28;20445;-42
2023/01/26 00:21:22;;;;;;;132.20;29.80;;;;;;;0.28;100.00;102481.41;5017772;28;20034;-42
2023/01/26 00:23:48;;;;;;;131.32;29.80;;;;;;;0.30;100.00;102481.34;5036892;28;20045;-40
2023/01/26 00:26:19;;;;;;;134.77;32.83;;;;;;;0.31;100.00;102475.09;5034970;28;20089;-40
2023/01/26 00:28:44;;;;;;;130.70;31.50;;;;;;;0.30;100.00;102484.84;5018693;28;20045;-41
2023/01/26 00:31:15;;;;;;;133.38;31.33;;;;;;;0.32;100.00;102474.19;5026075;28;20045;-40
2023/01/26 00:33:40;;;;;;;135.52;31.10;;;;;;;0.31;100.00;102475.09;5038011;28;20037;-42
2023/01/26 00:36:06;;;;;;;130.25;33.65;;;;;;;0.29;100.00;102479.59;5025345;28;20034;-41
2023/01/26 00:38:32;;;;;;;135.68;31.80;;;;;;;0.29;100.00;102475.19;5034325;28;20091;-41
2023/01/26 00:40:57;;;;;;;137.05;30.75;;;;;;;0.31;100.00;102472.44;5034828;28;20424;-42
2023/01/26 00:43:22;;;;;;;133.85;31.73;;;;;;;0.36;100.00;102475.72;5033283;28;20051;-40
2023/01/26 00:45:48;;;;;;;133.40;31.38;;;;;;;0.39;100.00;102476.41;5032516;28;20049;-40
2023/01/26 00:48:13;;;;;;;142.10;30.80;;;;;;;0.34;100.00;102462.56;5030883;28;20060;-40
2023/01/26 00:50:39;;;;;;;136.13;30.67;;;;;;;0.37;100.00;102466.84;5022222;28;20022;-39
2023/01/26 00:53:04;;;;;;;131.07;30.80;;;;;;;0.39;100.00;102459.69;5029421;28;20029;-39
2023/01/26 00:55:32;;;;;;;126.55;28.90;;;;;;;0.41;100.00;102458.66;5034635;28;20076;-39
2023/01/26 00:58:02;;;;;;;134.93;29.02;;;;;;;0.44;100.00;102465.59;5030615;28;20430;-40
2023/01/26 01:00:28;;;;;;;137.25;33.20;;;;;;;0.44;100.00;102452.38;5030911;28;20025;-39
2023/01/26 01:02:55;;;;;;;130.27;30.70;;;;;;;0.47;100.00;102454.84;5015657;28;20386;-39
2023/01/26 01:05:21;;;;;;;127.80;29.60;;;;;;;0.47;100.00;102457.50;5015163;28;20041;-39
2023/01/26 01:07:46;;;;;;;129.57;30.67;;;;;;;0.45;100.00;102454.09;5017533;28;20033;-39
2023/01/26 01:10:12;;;;;;;120.75;30.17;;;;;;;0.43;100.00;102455.97;5017642;28;20068;-39
2023/01/26 01:12:37;;;;;;;123.60;29.35;;;;;;;0.40;100.00;102456.13;5014750;28;20387;-39
2023/01/26 01:15:03;;;;;;;136.48;31.60;;;;;;;0.39;100.00;102457.03;5028531;28;20033;-38
2023/01/26 01:17:28;;;;;;;134.07;29.05;;;;;;;0.40;100.00;102456.13;5024662;28;20062;-39
2023/01/26 01:19:53;;;;;;;139.82;32.28;;;;;;;0.38;100.00;102452.69;5016061;28;20030;-38
2023/01/26 01:22:19;;;;;;;143.48;32.38;;;;;;;0.42;100.00;102459.53;5023118;28;20041;-38
2023/01/26 01:24:44;;;;;;;141.00;31.73;;;;;;;0.46;100.00;102460.25;5030463;28;20065;-39
2023/01/26 01:27:09;;;;;;;132.75;31.40;;;;;;;0.50;100.00;102451.19;5034465;28;20021;-38
2023/01/26 01:29:35;;;;;;;137.48;31.23;;;;;;;0.50;100.00;102454.72;5027824;28;20541;-39
2023/01/26 01:32:00;;;;;;;142.52;31.63;;;;;;;0.51;100.00;102453.78;5021664;28;20432;-38
2023/01/26 01:34:26;;;;;;;139.27;30.58;;;;;;;0.54;100.00;102458.91;5024739;28;20104;-40
2023/01/26 01:36:51;;;;;;;132.25;30.23;;;;;;;0.51;100.00;102456.44;5021747;28;20038;-38
2023/01/26 01:39:16;;;;;;;150.73;31.60;;;;;;;0.53;100.00;102446.63;5022387;28;20025;-38
2023/01/26 01:41:42;;;;;;;150.73;32.80;;;;;;;0.54;100.00;102458.06;5032152;28;20037;-38
2023/01/26 01:44:17;;;;;;;147.80;32.30;;;;;;;0.54;100.00;102458.91;5032863;28;20132;-38
2023/01/26 01:46:47;;;;;;;141.48;31.73;;;;;;;0.54;100.00;102448.31;5030551;28;20034;-38
2023/01/26 01:49:27;;;;;;;147.98;32.00;;;;;;;0.53;100.00;102457.22;5027512;28;20033;-39
2023/01/26 01:52:01;;;;;;;140.75;32.85;;;;;;;0.55;100.00;102452.66;5026388;28;20397;-38
2023/01/26 01:54:33;;;;;;;145.93;33.22;;;;;;;0.59;100.00;102451.59;5030872;28;20345;-38
2023/01/26 01:57:02;;;;;;;153.82;32.92;;;;;;;0.57;100.00;102457.91;5015291;28;20072;-39
2023/01/26 01:59:29;;;;;;;136.63;32.50;;;;;;;0.57;100.00;102448.16;5026302;28;20036;-39
2023/01/26 02:01:55;;;;;;;142.50;32.72;;;;;;;0.61;100.00;102446.22;5013831;28;20022;-39
2023/01/26 02:04:21;;;;;;;149.32;35.10;;;;;;;0.63;100.00;102447.88;5026842;28;20078;-40
2023/01/26 02:06:56;;;;;;;151.82;34.67;;;;;;;0.64;100.00;102449.56;5019576;28;20049;-39
2023/01/26 02:12:12;;;;;;;150.75;32.05;;;;;;;0.70;100.00;102453.69;5026203;28;20115;-40
2023/01/26 02:14:38;;;;;;;139.32;32.42;;;;;;;0.71;100.00;102454.53;5028891;28;20029;-38
2023/01/26 02:17:03;;;;;;;142.30;31.80;;;;;;;0.72;100.00;102459.78;5024084;28;20107;-40
2023/01/26 02:19:46;;;;;;;142.23;31.83;;;;;;;0.76;100.00;102452.53;5020287;28;20022;-39
2023/01/26 02:22:18;;;;;;;155.88;31.63;;;;;;;0.78;100.00;102446.22;5045009;28;20092;-39
2023/01/26 02:24:44;;;;;;;156.38;31.83;;;;;;;0.84;100.00;102447.69;5021562;28;20032;-38
2023/01/26 02:27:09;;;;;;;147.60;31.58;;;;;;;0.84;100.00;102442.38;5022724;28;20022;-38
2023/01/26 02:29:34;;;;;;;146.40;30.67;;;;;;;0.87;100.00;102445.75;5018585;28;20033;-39
2023/01/26 02:32:00;;;;;;;151.93;32.33;;;;;;;0.90;100.00;102449.19;5022193;28;20048;-39
2023/01/26 02:34:27;;;;;;;138.68;30.65;;;;;;;0.91;100.00;102446.44;5025567;28;20112;-38
2023/01/26 02:36:59;;;;;;;141.00;29.92;;;;;;;0.95;100.00;102452.41;5016860;28;20080;-39
2023/01/26 02:39:40;;;;;;;140.30;31.52;;;;;;;0.93;100.00;102449.88;5029360;28;20029;-41
2023/01/26 02:44:50;;;;;;;139.82;30.85;;;;;;;0.94;100.00;102451.56;5029702;28;20048;-39
2023/01/26 02:47:17;;;;;;;146.75;31.60;;;;;;;0.96;100.00;102448.84;5015120;28;20113;-40
2023/01/26 02:49:51;;;;;;;157.02;32.78;;;;;;;1.00;100.00;102450.38;5020472;28;20365;-39
2023/01/26 02:52:19;;;;;;;164.85;33.53;;;;;;;1.02;100.00;102454.69;5023510;28;20045;-39
2023/01/26 02:57:29;;;;;;;143.93;30.60;;;;;;;1.06;100.00;102456.25;5025582;28;20055;-39
2023/01/26 02:59:54;;;;;;;159.25;31.90;;;;;;;1.07;100.00;102444.69;5026525;28;20029;-39
2023/01/26 03:02:20;;;;;;;153.57;33.20;;;;;;;1.06;100.00;102456.25;5017585;28;20052;-39
2023/01/26 03:04:45;;;;;;;149.90;32.63;;;;;;;1.07;100.00;102455.28;5028513;28;20092;-40
2023/01/26 03:07:11;;;;;;;163.05;33.00;;;;;;;1.08;100.00;102458.81;5030064;28;20364;-39
2023/01/26 03:09:36;;;;;;;169.30;33.80;;;;;;;1.09;100.00;102456.06;5031719;28;20034;-39
2023/01/26 03:12:02;;;;;;;156.70;32.42;;;;;;;1.13;100.00;102459.41;5030088;28;20064;-39
2023/01/26 03:14:27;;;;;;;155.48;32.72;;;;;;;1.16;100.00;102450.44;5030532;28;20029;-38
2023/01/26 03:16:52;;;;;;;148.55;31.90;;;;;;;1.23;100.00;102457.13;5018849;28;20038;-40
2023/01/26 03:27:44;;;;;;;141.55;30.92;;;;;;;1.33;100.00;102447.75;5020215;28;20388;-39
2023/01/26 03:30:10;;;;;;;155.73;31.73;;;;;;;1.31;100.00;102455.78;5016998;28;20526;-39
2023/01/26 03:32:35;;;;;;;137.98;29.90;;;;;;;1.41;100.00;102444.69;5026770;28;20491;-38
2023/01/26 03:35:01;;;;;;;148.40;32.78;;;;;;;1.41;100.00;102460.59;5023130;28;20034;-39
2023/01/26 03:37:26;;;;;;;153.48;32.42;;;;;;;1.42;100.00;102451.69;5026630;28;20068;-41
2023/01/26 03:56:31;;;;;;;148.70;33.00;;;;;;;1.36;100.00;102467.94;5012833;28;20065;-39
2023/01/26 03:59:06;;;;;;;155.90;32.90;;;;;;;1.37;100.00;102464.34;5019438;28;20042;-39
2023/01/26 04:01:33;;;;;;;152.73;31.23;;;;;;;1.46;100.00;102464.72;5030200;28;20037;-39
2023/01/26 04:09:30;;;;;;;149.68;30.92;;;;;;;1.43;100.00;102464.88;5013483;28;20052;-39
2023/01/26 04:11:56;;;;;;;156.90;32.33;;;;;;;1.43;100.00;102464.03;5016325;28;20022;-39
2023/01/26 04:22:42;;;;;;;140.13;31.08;;;;;;;1.63;100.00;102471.75;5029293;28;20496;-38
2023/01/26 04:25:09;;;;;;;145.13;31.48;;;;;;;1.63;100.00;102461.13;5014289;28;20065;-40
2023/01/26 04:27:35;;;;;;;150.73;32.85;;;;;;;1.63;100.00;102470.91;5022815;28;20022;-38
2023/01/26 04:30:02;;;;;;;144.07;31.92;;;;;;;1.63;100.00;102465.59;5027189;28;20491;-39
2023/01/26 04:32:27;;;;;;;137.13;31.07;;;;;;;1.62;100.00;102464.75;5027461;28;20069;-39
2023/01/26 04:34:53;;;;;;;142.13;30.83;;;;;;;1.62;100.00;102469.19;5016412;28;20328;-39
2023/01/26 04:37:18;;;;;;;142.10;30.90;;;;;;;1.61;100.00;102465.69;5016142;28;20490;-39
2023/01/26 04:39:43;;;;;;;142.68;31.83;;;;;;;1.61;100.00;102467.50;5024273;28;20449;-39
2023/01/26 04:42:09;;;;;;;147.20;31.25;;;;;;;1.60;100.00;102471.06;5022073;28;20030;-40
2023/01/26 04:44:34;;;;;;;160.05;33.05;;;;;;;1.60;100.00;102463.97;5024399;28;20018;-41
2023/01/26 04:46:59;;;;;;;137.40;30.63;;;;;;;1.62;100.00;102469.19;5018965;28;20034;-39
2023/01/26 04:49:25;;;;;;;150.25;32.83;;;;;;;1.61;100.00;102463.03;5029233;28;20101;-41
2023/01/26 04:51:51;;;;;;;155.48;30.05;;;;;;;1.60;100.00;102468.41;5030822;28;20080;-40
2023/01/26 04:54:16;;;;;;;156.95;33.42;;;;;;;1.63;100.00;102471.75;5031423;28;20109;-39
2023/01/26 04:56:41;;;;;;;152.98;31.23;;;;;;;1.67;100.00;102467.16;5022753;28;20022;-39
2023/01/26 04:59:08;;;;;;;134.43;30.65;;;;;;;1.71;100.00;102471.34;5027591;28;20060;-41
2023/01/26 05:01:33;;;;;;;144.15;31.00;;;;;;;1.75;100.00;102470.25;5021149;28;20033;-39
2023/01/26 05:04:00;;;;;;;134.93;29.88;;;;;;;1.84;100.00;102464.41;5025189;28;20109;-42
2023/01/26 05:06:25;;;;;;;134.25;28.20;;;;;;;1.90;100.00;102468.53;5028743;28;20033;-39
2023/01/26 05:08:50;;;;;;;134.05;28.27;;;;;;;1.95;100.00;102464.69;5021493;28;20439;-40
2023/01/26 05:11:16;;;;;;;131.13;28.02;;;;;;;2.03;100.00;102466.03;5024759;28;20415;-40
2023/01/26 05:13:41;;;;;;;127.65;29.63;;;;;;;2.10;100.00;102460.28;5026737;28;20513;-40
2023/01/26 05:16:07;;;;;;;106.35;25.88;;;;;;;2.22;100.00;102464.06;5032211;28;20389;-39
2023/01/26 05:18:32;;;;;;;118.97;26.00;;;;;;;2.27;100.00;102464.66;5027598;28;20105;-39
2023/01/26 05:20:58;;;;;;;109.63;25.00;;;;;;;2.40;100.00;102473.63;5015208;28;20032;-39
2023/01/26 05:23:23;;;;;;;117.85;24.70;;;;;;;2.48;100.00;102475.00;5021453;28;20096;-40
2023/01/26 05:25:48;;;;;;;105.63;23.85;;;;;;;2.59;100.00;102475.22;5015972;28;20025;-39
2023/01/26 05:28:14;;;;;;;102.95;23.58;;;;;;;2.71;100.00;102468.31;5035317;28;20409;-40
2023/01/26 05:30:39;;;;;;;90.07;22.02;;;;;;;2.83;100.00;102468.44;5051670;28;20107;-39
2023/01/26 05:33:06;;;;;;;89.43;21.52;;;;;;;2.90;100.00;102470.72;5021074;28;20471;-40
2023/01/26 05:35:32;;;;;;;98.47;21.85;;;;;;;2.97;100.00;102475.56;5023512;28;20025;-40
2023/01/26 05:37:57;;;;;;;82.57;17.88;;;;;;;3.02;100.00;102478.81;5027728;28;20401;-40
2023/01/26 05:40:23;;;;;;;87.15;19.63;;;;;;;3.06;100.00;102487.50;5030552;28;20384;-40
2023/01/26 05:42:49;;;;;;;98.72;20.45;;;;;;;3.10;100.00;102480.16;5032628;28;20033;-40
2023/01/26 05:45:14;;;;;;;85.03;17.38;;;;;;;3.18;100.00;102485.88;5030130;28;20059;-41
2023/01/26 05:47:43;;;;;;;85.18;19.25;;;;;;;3.28;100.00;102493.19;5024711;28;20072;-40
2023/01/26 05:50:09;;;;;;;77.88;17.35;;;;;;;3.41;100.00;102493.31;5021884;28;20422;-40
2023/01/26 05:52:34;;;;;;;74.22;16.02;;;;;;;3.44;100.00;102492.25;5033590;28;20057;-40
2023/01/26 05:55:00;;;;;;;81.78;16.20;;;;;;;3.42;100.00;102504.78;5023306;28;20424;-40
2023/01/26 05:57:25;;;;;;;68.15;15.63;;;;;;;3.55;100.00;102494.25;5025677;28;20037;-40
2023/01/26 05:59:50;;;;;;;74.63;14.85;;;;;;;3.59;100.00;102493.97;5030189;28;20045;-40
2023/01/26 06:02:16;;;;;;;78.15;14.35;;;;;;;3.61;100.00;102497.41;5033193;28;20064;-40
2023/01/26 06:04:41;;;;;;;80.38;13.82;;;;;;;3.69;100.00;102496.91;5032343;28;20388;-39
2023/01/26 06:07:06;;;;;;;60.30;12.38;;;;;;;3.73;100.00;102503.75;5033200;28;20037;-40
2023/01/26 06:09:32;;;;;;;64.38;11.20;;;;;;;3.80;100.00;102501.56;5032369;28;20022;-41
2023/01/26 06:11:57;;;;;;;72.53;11.25;;;;;;;3.84;100.00;102511.06;5023829;28;20087;-40
2023/01/26 06:14:22;;;;;;;66.65;9.90;;;;;;;3.96;100.00;102511.13;5019604;28;20373;-41
2023/01/26 06:16:48;;;;;;;61.42;9.40;;;;;;;3.97;100.00;102514.66;5032797;28;20443;-39
2023/01/26 06:19:13;;;;;;;56.13;10.52;;;;;;;3.97;100.00;102512.84;5031771;28;20042;-39
2023/01/26 06:21:38;;;;;;;69.35;8.48;;;;;;;4.04;100.00;102520.47;5025775;28;20041;-40
2023/01/26 06:24:04;;;;;;;49.00;6.55;;;;;;;4.15;100.00;102510.81;5013603;28;20056;-40
2023/01/26 06:26:30;;;;;;;60.80;6.40;;;;;;;4.22;100.00;102523.75;5022502;28;20026;-40
2023/01/26 06:28:56;;;;;;;63.35;6.70;;;;;;;4.24;100.00;102519.16;5032823;28;20095;-40
2023/01/26 06:31:28;;;;;;;76.57;6.20;;;;;;;4.34;100.00;102520.28;5025567;28;20046;-41
2023/01/26 06:33:53;;;;;;;55.92;4.82;;;;;;;4.48;100.00;102527.38;5014242;28;20034;-41
2023/01/26 06:36:18;;;;;;;53.67;4.68;;;;;;;4.50;100.00;102526.34;5033041;28;20083;-40
2023/01/26 06:38:46;;;;;;;55.65;3.97;;;;;;;4.49;100.00;102527.28;5033332;28;20080;-40
2023/01/26 06:41:11;;;;;;;63.17;6.53;;;;;;;4.51;100.00;102533.38;5033422;28;20033;-40
2023/01/26 06:43:37;;;;;;;57.97;4.57;;;;;;;4.49;100.00;102532.59;5033136;28;20022;-40
2023/01/26 06:46:04;;;;;;;47.35;4.40;;;;;;;4.49;100.00;102535.28;5032535;28;20116;-40
2023/01/26 06:48:31;;;;;;;57.73;5.03;;;;;;;4.51;100.00;102538.69;5032824;28;20061;-41
2023/01/26 06:51:02;;;;;;;51.17;4.65;;;;;;;4.56;100.00;102549.06;5033526;28;20381;-39
2023/01/26 06:53:38;;;;;;;51.35;5.03;;;;;;;4.69;100.00;102555.31;5031961;28;20087;-40
2023/01/26 06:56:04;;;;;;;64.53;5.00;;;;;;;4.72;100.00;102546.25;5018411;28;20057;-40
2023/01/26 06:58:30;;;;;;;59.47;4.32;;;;;;;4.75;100.00;102564.69;5030925;28;20034;-39
2023/01/26 07:00:55;;;;;;;59.30;5.13;;;;;;;4.74;100.00;102560.31;5032130;28;20026;-41
2023/01/26 07:03:21;;;;;;;68.32;6.35;;;;;;;4.78;100.00;102561.81;5031273;28;20033;-39
2023/01/26 07:05:46;;;;;;;59.97;5.22;;;;;;;4.69;100.00;102565.13;5027607;28;20536;-41
2023/01/26 07:08:12;;;;;;;64.43;5.22;;;;;;;4.75;100.00;102556.69;5032484;28;20025;-40
2023/01/26 07:10:37;;;;;;;52.40;4.75;;;;;;;4.72;100.00;102567.59;5018771;28;20049;-40
2023/01/26 07:13:03;;;;;;;57.88;5.15;;;;;;;4.76;100.00;102569.06;5014992;28;20030;-40
2023/01/26 07:15:29;;;;;;;58.05;4.78;;;;;;;4.67;100.00;102556.34;5015438;28;20064;-40
2023/01/26 07:17:56;;;;;;;43.15;4.20;;;;;;;4.67;100.00;102564.34;5030840;28;20369;-40
2023/01/26 07:20:21;;;;;;;39.60;4.65;;;;;;;4.60;100.00;102564.75;5031124;28;20426;-40
2023/01/26 07:22:46;;;;;;;46.15;3.80;;;;;;;4.61;100.00;102560.28;5031749;28;20171;-41
2023/01/26 07:25:12;;;;;;;69.90;5.03;;;;;;;4.58;100.00;102561.34;5030366;28;20064;-40
2023/01/26 07:27:37;;;;;;;46.40;4.30;;;;;;;4.55;100.00;102568.66;5026528;28;20060;-40
2023/01/26 07:30:03;;;;;;;45.55;5.03;;;;;;;4.56;100.00;102567.72;5022537;28;20068;-39
2023/01/26 07:32:28;;;;;;;43.65;4.15;;;;;;;4.55;100.00;102564.19;5030858;28;20416;-40
2023/01/26 07:34:53;;;;;;;41.10;3.30;;;;;;;4.49;100.00;102567.25;5030532;28;20091;-40
2023/01/26 07:37:19;;;;;;;35.15;3.50;;;;;;;4.44;100.00;102573.84;5027322;28;20033;-39
2023/01/26 07:39:44;;;;;;;41.30;4.00;;;;;;;4.42;100.00;102570.41;5012010;28;20442;-40
2023/01/26 07:42:10;;;;;;;41.88;4.40;;;;;;;4.39;100.00;102568.81;5015966;28;20483;-41
2023/01/26 07:44:35;;;;;;;51.08;5.45;;;;;;;4.42;100.00;102581.09;5029803;28;20778;-39
2023/01/26 07:47:00;;;;;;;48.22;4.45;;;;;;;4.37;100.00;102571.59;5027030;28;20030;-41
2023/01/26 07:49:26;;;;;;;36.90;3.53;;;;;;;4.35;100.00;102575.31;5023561;28;20120;-41
2023/01/26 07:51:52;;;;;;;41.60;3.72;;;;;;;4.30;100.00;102580.09;5024462;28;20029;-40
2023/01/26 07:54:20;;;;;;;40.22;3.92;;;;;;;4.28;100.00;102584.66;5023883;28;20038;-40
2023/01/26 07:56:45;;;;;;;59.70;5.13;;;;;;;4.22;100.00;102585.06;5018300;28;20080;-40
2023/01/26 07:59:11;;;;;;;44.63;4.72;;;;;;;4.15;100.00;102584.56;5022727;28;20469;-40
2023/01/26 08:01:37;;;;;;;45.50;4.25;;;;;;;4.20;100.00;102593.13;5029200;28;20033;-39
2023/01/26 08:04:02;;;;;;;50.63;3.95;;;;;;;4.17;100.00;102588.84;5029567;28;20040;-41
2023/01/26 08:06:27;;;;;;;53.63;5.18;;;;;;;4.20;100.00;102595.78;5031172;28;20514;-40
2023/01/26 08:08:53;;;;;;;42.75;4.43;;;;;;;4.21;100.00;102599.31;5030957;28;20503;-40
2023/01/26 08:11:21;;;;;;;49.47;5.43;;;;;;;4.16;100.00;102592.47;5025854;28;20145;-40
2023/01/26 08:13:46;;;;;;;52.22;4.00;;;;;;;4.24;100.00;102599.09;5016109;28;20542;-40
2023/01/26 08:16:11;;;;;;;45.70;3.88;;;;;;;4.29;100.00;102607.66;5031279;28;20122;-38
2023/01/26 08:18:38;;;;;;;54.40;5.50;;;;;;;4.31;100.00;102605.78;5030880;28;20485;-39
2023/01/26 08:21:03;;;;;;;48.58;4.25;;;;;;;4.45;100.00;102608.44;5030146;28;20038;-40
2023/01/26 08:23:29;;;;;;;44.00;4.28;;;;;;;4.67;100.00;102615.03;5029672;28;20048;-40
2023/01/26 08:25:54;;;;;;;52.38;4.53;;;;;;;4.93;100.00;102616.84;5030661;28;20033;-39
2023/01/26 08:28:20;;;;;;;53.22;3.90;;;;;;;5.25;100.00;102620.03;5027264;28;20045;-40
2023/01/26 08:30:45;;;;;;;37.63;4.13;;;;;;;5.73;100.00;102609.59;5028282;28;20061;-40
2023/01/26 08:33:11;;;;;;;38.38;3.60;;;;;;;6.26;100.00;102617.47;5012138;28;20028;-40
2023/01/26 08:35:36;;;;;;;39.30;3.38;;;;;;;6.80;100.00;102624.28;5014788;28;20473;-41
2023/01/26 08:38:01;;;;;;;47.30;4.80;;;;;;;7.52;100.00;102616.16;5029030;28;20401;-40
2023/01/26 08:40:27;;;;;;;33.85;4.03;;;;;;;7.99;100.00;102595.50;5023700;28;20025;-41
2023/01/26 08:42:53;;;;;;;60.97;4.43;;;;;;;8.35;100.00;102574.75;5029736;28;20044;-41
2023/01/26 08:45:19;;;;;;;46.35;5.45;;;;;;;8.65;100.00;102559.81;5032553;28;20034;-42
2023/01/26 08:47:48;;;;;;;36.30;3.38;;;;;;;9.01;100.00;102550.50;5033047;28;20025;-40
2023/01/26 08:50:13;;;;;;;34.38;3.72;;;;;;;9.38;100.00;102547.38;5030326;28;20022;-41
2023/01/26 08:52:39;;;;;;;42.22;4.45;;;;;;;9.97;100.00;102548.50;5034245;28;20079;-40
2023/01/26 08:55:04;;;;;;;39.90;3.95;;;;;;;10.32;100.00;102551.59;5033390;28;20512;-41
2023/01/26 08:57:30;;;;;;;47.15;4.20;;;;;;;10.62;100.00;102548.97;5032230;28;20044;-41
2023/01/26 08:59:55;;;;;;;42.47;4.57;;;;;;;11.01;100.00;102549.81;5033301;28;20144;-39
2023/01/26 09:02:20;;;;;;;56.05;6.00;;;;;;;11.13;100.00;102551.34;5026019;28;20072;-39
2023/01/26 09:04:46;;;;;;;28.52;3.78;;;;;;;11.60;100.00;102546.00;5013958;28;20397;-40
2023/01/26 09:07:11;;;;;;;34.15;3.90;;;;;;;11.76;100.00;102555.31;5015338;28;20022;-39
2023/01/26 09:09:36;;;;;;;32.63;3.53;;;;;;;11.86;100.00;102557.00;5032127;28;20113;-40
2023/01/26 09:12:03;;;;;;;27.88;3.95;;;;;;;11.75;100.00;102556.31;5033278;28;20418;-39
2023/01/26 09:14:28;;;;;;;32.03;3.80;;;;;;;11.56;100.00;102558.09;5033807;28;20377;-40
2023/01/26 09:16:54;;;;;;;39.42;4.20;;;;;;;11.14;100.00;102563.84;5033656;28;20022;-40
2023/01/26 09:19:19;;;;;;;41.17;5.00;;;;;;;11.05;100.00;102567.38;5030708;28;20618;-40
2023/01/26 09:21:44;;;;;;;43.60;4.50;;;;;;;11.03;100.00;102574.75;5030295;28;20383;-41
2023/01/26 09:24:10;;;;;;;31.27;4.00;;;;;;;10.95;100.00;102574.59;5033462;28;20463;-40
2023/01/26 09:26:35;;;;;;;30.83;3.20;;;;;;;10.73;100.00;102571.19;5033590;28;20037;-40
2023/01/26 09:29:01;;;;;;;39.40;3.92;;;;;;;10.73;100.00;102568.50;5032344;28;20477;-40
2023/01/26 09:31:26;;;;;;;47.22;4.57;;;;;;;10.87;100.00;102569.94;5033357;28;20116;-40
2023/01/26 09:33:51;;;;;;;31.13;4.13;;;;;;;10.92;100.00;102567.66;5014296;28;20030;-40
2023/01/26 09:36:17;;;;;;;27.95;3.85;;;;;;;10.94;100.00;102570.22;5023679;28;20473;-41
2023/01/26 09:38:42;;;;;;;37.90;3.58;;;;;;;10.86;100.00;102570.09;5032277;28;20248;-41
2023/01/26 09:41:40;;;;;;;38.05;3.75;;;;;;;10.52;100.00;102570.47;5029380;28;20037;-41
2023/01/26 09:44:09;;;;;;;;;;;;;;;10.24;100.00;102567.56;5026966;28;20040;-41
2023/01/26 09:47:06;;;;;;;38.03;3.50;;;;;;;9.72;100.00;102572.16;5030134;28;19944;-40
2023/01/26 09:49:52;;;;;;;42.43;5.50;;;;;;;9.59;100.00;102577.75;5022146;28;20117;-40
2023/01/26 09:52:37;;;;;;;30.83;3.95;;;;;;;9.59;100.00;102571.53;5015135;28;20041;-40
2023/01/26 09:55:04;;;;;;;41.10;4.88;;;;;;;9.53;100.00;102572.91;5028957;28;20049;-40
2023/01/26 09:57:35;;;;;;;42.30;3.50;;;;;;;9.51;100.00;102584.78;5030317;28;20029;-40
2023/01/26 10:00:08;;;;;;;41.53;3.78;;;;;;;9.60;100.00;102581.28;5036207;28;20361;-39
2023/01/26 10:02:45;;;;;;;38.03;4.53;;;;;;;9.74;100.00;102580.97;5036749;28;20032;-42
2023/01/26 10:05:18;;;;;;;39.78;5.32;;;;;;;9.95;100.00;102578.19;5024193;28;20072;-41
2023/01/26 10:07:44;;;;;;;38.00;4.13;;;;;;;10.04;100.00;102568.47;5014839;28;20108;-40
2023/01/26 10:10:19;;;;;;;39.53;3.85;;;;;;;10.26;100.00;102567.41;5034239;28;20513;-42
2023/01/26 10:12:47;;;;;;;28.65;3.60;;;;;;;10.35;100.00;102580.09;5025813;28;20044;-40
2023/01/26 10:15:37;;;;;;;34.60;4.57;;;;;;;10.79;100.00;102579.72;5015553;28;20029;-40
2023/01/26 10:18:06;;;;;;;37.75;4.20;;;;;;;10.98;100.00;102588.66;5014160;28;20117;-39
2023/01/26 10:20:52;;;;;;;35.15;3.60;;;;;;;11.27;100.00;102578.84;5032616;28;20076;-40
2023/01/26 10:23:32;;;;;;;33.67;4.30;;;;;;;11.56;100.00;102576.13;5024510;28;20040;-40
2023/01/26 10:26:10;;;;;;;41.30;5.10;;;;;;;11.76;100.00;102579.59;5026351;28;20041;-40
2023/01/26 10:28:35;;;;;;;26.83;3.35;;;;;;;11.32;100.00;102577.44;5015096;28;20492;-41
2023/01/26 10:31:03;;;;;;;34.42;4.30;;;;;;;10.76;100.00;102573.59;5041736;28;20045;-39
2023/01/26 10:33:35;;;;;;;41.45;3.72;;;;;;;10.44;100.00;102584.63;5033444;28;20026;-40
2023/01/26 10:36:05;;;;;;;32.50;4.32;;;;;;;10.37;100.00;102588.84;5048539;28;20476;-40
2023/01/26 10:38:33;;;;;;;35.33;4.20;;;;;;;10.53;100.00;102583.81;5034778;28;20132;-40
2023/01/26 10:40:59;;;;;;;33.03;3.72;;;;;;;10.66;100.00;102594.28;5013634;28;20038;-41
2023/01/26 10:43:25;;;;;;;24.63;3.33;;;;;;;10.77;100.00;102599.56;5021430;28;20053;-40
2023/01/26 10:45:50;;;;;;;26.67;3.45;;;;;;;10.82;100.00;102598.28;5033222;28;20025;-40
2023/01/26 10:48:17;;;;;;;36.13;5.15;;;;;;;10.77;100.00;102602.25;5032169;28;20025;-40
2023/01/26 10:50:44;;;;;;;35.10;4.00;;;;;;;10.92;100.00;102596.44;5033698;28;20080;-40
2023/01/26 10:53:22;;;;;;;35.95;4.13;;;;;;;10.71;100.00;102589.34;5033311;28;20424;-40
2023/01/26 10:56:01;;;;;;;43.90;4.53;;;;;;;10.14;100.00;102596.28;5033455;28;20031;-40
2023/01/26 10:58:48;;;;;;;34.22;3.45;;;;;;;9.45;100.00;102594.19;5016298;28;20515;-41
2023/01/26 11:01:17;;;;;;;33.53;3.33;;;;;;;9.11;100.00;102593.53;5032946;28;20100;-41
2023/01/26 11:03:58;;;;;;;32.10;3.05;;;;;;;8.89;100.00;102599.88;5031720;28;20052;-40
2023/01/26 11:06:27;;;;;;;33.53;3.22;;;;;;;8.73;100.00;102594.91;5031513;28;20116;-40
2023/01/26 11:08:53;;;;;;;28.42;3.15;;;;;;;8.69;100.00;102590.75;5033016;28;20644;-39
2023/01/26 11:11:25;;;;;;;39.42;4.18;;;;;;;8.97;100.00;102592.03;5033305;28;20025;-39
2023/01/26 11:14:19;;;;;;;37.15;4.70;;;;;;;9.17;100.00;102598.41;5013891;28;20038;-40
2023/01/26 11:16:49;;;;;;;38.28;3.90;;;;;;;9.50;100.00;102599.19;5012991;28;20116;-40
2023/01/26 11:19:39;;;;;;;39.90;5.03;;;;;;;9.44;100.00;102596.03;5015271;28;20048;-40
2023/01/26 11:22:07;;;;;;;42.17;4.47;;;;;;;9.23;100.00;102597.88;5026901;28;20064;-41
2023/01/26 11:24:37;;;;;;;32.45;3.35;;;;;;;8.93;100.00;102591.44;5022982;28;20037;-40
2023/01/26 11:27:05;;;;;;;35.58;3.67;;;;;;;8.78;100.00;102595.38;5030920;28;20041;-40
2023/01/26 11:29:58;;;;;;;36.45;3.88;;;;;;;8.87;100.00;102608.03;5027500;28;20040;-40
2023/01/26 11:32:43;;;;;;;42.80;2.97;;;;;;;9.32;100.00;102596.25;5033948;28;20101;-39
2023/01/26 11:35:22;;;;;;;39.58;4.20;;;;;;;9.57;100.00;102600.38;5036259;28;20052;-40
2023/01/26 11:37:57;;;;;;;26.73;2.40;;;;;;;9.55;100.00;102592.44;5031073;28;20073;-40
2023/01/26 11:40:24;;;;;;;31.55;3.13;;;;;;;9.44;100.00;102593.34;5031453;28;20017;-38
2023/01/26 11:42:55;;;;;;;46.35;3.65;;;;;;;9.17;100.00;102595.72;5031424;28;20033;-39
2023/01/26 11:45:35;;;;;;;31.85;3.30;;;;;;;8.96;100.00;102606.44;5021212;28;20354;-40
2023/01/26 11:48:18;;;;;;;35.38;4.50;;;;;;;8.75;100.00;102609.06;5012203;28;20059;-40
2023/01/26 11:50:46;;;;;;;43.90;3.85;;;;;;;8.61;100.00;102614.69;5017601;28;20040;-41
2023/01/26 11:53:36;;;;;;;33.72;3.45;;;;;;;8.43;100.00;102614.41;5031100;28;20056;-40
2023/01/26 11:56:16;;;;;;;31.25;2.50;;;;;;;8.23;100.00;102602.56;5032611;28;20036;-40
2023/01/26 11:59:09;;;;;;;34.25;3.35;;;;;;;8.09;100.00;102606.34;5019730;28;20049;-40
2023/01/26 12:01:39;;;;;;;26.30;2.67;;;;;;;8.06;100.00;102607.44;5014933;28;20038;-40